Thompsontown, Pennsylvania
Current Conditions -  °F | °C
As of 12:53 AM on Saturday 29 Nov 2014 (Local Time) from KSEG Reporting Station
Overcast Overcast  
Wind Chill: -6°   Ceiling: 9500
Heat Index: -6°   Visibility: 10mi
Dew Point: -8°   Wind: 0mph
Humidity: 85%   Direction: NA
Pressure: 30.27"   Gusts: NA
Location:  40.56°N, 77.24°W
Report Text: KSEG 290553Z AUTO 00000KT 10SM OVC095 M06/M08 A3027 RMK AO2 SLP258 T10561078 11028 21089 53002
Loading
Personal Weather Stations






























Interactive Weather Map New forecast layout! Learn more

10-Day Weather Forecast

Advertisements
Track Severe Weather on mobile